createdAt,value
2022-10-06T00:00:27.444Z,95519.78
2022-10-06T00:02:54.112Z,95531.09
2022-10-06T00:05:20.753Z,95533.84
2022-10-06T00:07:47.865Z,95532.13
2022-10-06T00:10:14.689Z,95538.56
2022-10-06T00:12:47.066Z,95542.22
2022-10-06T00:15:16.042Z,95545.66
2022-10-06T00:17:42.799Z,95539.03
2022-10-06T00:20:10.280Z,95534.28
2022-10-06T00:22:45.878Z,95552.13
2022-10-06T00:25:14.833Z,95550.38
2022-10-06T00:27:43.501Z,95564.16
2022-10-06T00:30:13.089Z,95556.00
2022-10-06T00:32:40.014Z,95562.50
2022-10-06T00:35:07.786Z,95546.59
2022-10-06T00:37:36.664Z,95553.94
2022-10-06T00:40:07.154Z,95557.53
2022-10-06T00:42:33.782Z,95556.44
2022-10-06T00:45:02.773Z,95565.81
2022-10-06T00:47:31.866Z,95554.47
2022-10-06T00:49:58.821Z,95551.44
2022-10-06T00:52:28.213Z,95555.81
2022-10-06T00:54:56.365Z,95558.56
2022-10-06T00:57:23.048Z,95550.53
2022-10-06T00:59:49.746Z,95550.53
2022-10-06T01:02:20.607Z,95557.97
2022-10-06T01:04:55.702Z,95562.66
2022-10-06T01:07:25.450Z,95563.63
2022-10-06T01:09:52.653Z,95553.97
2022-10-06T01:12:20.225Z,95558.50
2022-10-06T01:14:47.081Z,95558.50
2022-10-06T01:17:40.727Z,95568.66
2022-10-06T01:20:10.033Z,95557.06
2022-10-06T01:22:39.031Z,95577.38
2022-10-06T01:25:06.791Z,95568.53
2022-10-06T01:27:35.377Z,95551.53
2022-10-06T01:30:02.364Z,95560.78
2022-10-06T01:32:33.576Z,95561.19
2022-10-06T01:35:00.281Z,95561.72
2022-10-06T01:37:26.957Z,95562.88
2022-10-06T01:39:53.711Z,95561.44
2022-10-06T01:42:20.339Z,95556.47
2022-10-06T01:44:46.995Z,95566.94
2022-10-06T01:47:13.665Z,95558.97
2022-10-06T01:49:40.554Z,95549.00
2022-10-06T01:52:07.334Z,95561.78
2022-10-06T01:54:33.973Z,95565.88
2022-10-06T01:57:00.808Z,95567.38
2022-10-06T01:59:27.425Z,95566.69
2022-10-06T02:01:54.193Z,95567.53
2022-10-06T02:04:21.036Z,95571.41
2022-10-06T02:06:47.809Z,95572.88
2022-10-06T02:09:14.467Z,95580.09
2022-10-06T02:11:41.139Z,95575.38
2022-10-06T02:14:07.775Z,95579.72
2022-10-06T02:16:35.939Z,95580.25
2022-10-06T02:19:02.581Z,95571.69
2022-10-06T02:21:29.212Z,95595.19
2022-10-06T02:23:55.891Z,95594.53
2022-10-06T02:26:22.594Z,95609.22
2022-10-06T02:28:50.199Z,95586.69
2022-10-06T02:31:17.178Z,95606.16
2022-10-06T02:33:44.849Z,95595.41
2022-10-06T02:36:15.522Z,95603.59
2022-10-06T02:38:42.404Z,95598.69
2022-10-06T02:41:10.716Z,95601.56
2022-10-06T02:43:37.747Z,95605.00
2022-10-06T02:46:10.527Z,95613.28
2022-10-06T02:48:37.185Z,95623.47
2022-10-06T02:51:09.668Z,95616.03
2022-10-06T02:53:36.678Z,95621.53
2022-10-06T02:56:11.069Z,95630.72
2022-10-06T02:58:39.978Z,95632.25
2022-10-06T03:01:18.098Z,95634.16
2022-10-06T03:03:46.823Z,95623.72
2022-10-06T03:06:23.974Z,95630.88
2022-10-06T03:09:00.836Z,95626.56
2022-10-06T03:11:32.893Z,95632.28
2022-10-06T03:14:00.103Z,95626.09
2022-10-06T03:16:32.324Z,95639.88
2022-10-06T03:18:59.681Z,95651.25
2022-10-06T03:21:29.402Z,95648.19
2022-10-06T03:23:57.428Z,95656.25
2022-10-06T03:26:27.968Z,95654.63
2022-10-06T03:28:55.437Z,95660.34
2022-10-06T03:31:22.837Z,95667.81
2022-10-06T03:33:49.491Z,95665.81
2022-10-06T03:36:20.908Z,95668.16
2022-10-06T03:38:47.968Z,95675.53
2022-10-06T03:41:15.910Z,95676.59
2022-10-06T03:43:44.750Z,95674.09
2022-10-06T03:46:14.015Z,95670.44
2022-10-06T03:48:41.234Z,95674.38
2022-10-06T03:51:14.490Z,95680.53
2022-10-06T03:53:44.269Z,95674.59
2022-10-06T03:56:12.913Z,95674.84
2022-10-06T03:58:41.569Z,95685.53
2022-10-06T04:01:14.167Z,95689.56
2022-10-06T04:03:41.006Z,95686.50
2022-10-06T04:06:12.220Z,95705.31
2022-10-06T04:08:40.240Z,95711.47
2022-10-06T04:11:07.836Z,95714.78
2022-10-06T04:13:35.408Z,95711.25
2022-10-06T04:16:11.124Z,95712.41
2022-10-06T04:18:38.352Z,95712.66
2022-10-06T04:21:05.274Z,95709.34
2022-10-06T04:23:32.153Z,95706.97
2022-10-06T04:26:00.358Z,95727.53
2022-10-06T04:28:27.474Z,95716.94
2022-10-06T04:30:58.405Z,95715.53
2022-10-06T04:33:25.117Z,95701.75
2022-10-06T04:36:11.544Z,95726.22
2022-10-06T04:38:38.164Z,95713.63
2022-10-06T04:41:07.102Z,95718.28
2022-10-06T04:43:34.757Z,95721.44
2022-10-06T04:46:13.045Z,95717.31
2022-10-06T04:48:50.556Z,95728.38
2022-10-06T04:51:17.594Z,95737.41
2022-10-06T04:53:44.357Z,95735.03
2022-10-06T04:56:14.370Z,95748.22
2022-10-06T04:58:43.759Z,95739.41
2022-10-06T05:01:18.874Z,95743.22
2022-10-06T05:03:46.862Z,95751.88
2022-10-06T05:06:37.581Z,95748.66
2022-10-06T05:09:07.278Z,95741.06
2022-10-06T05:11:34.075Z,95751.06
2022-10-06T05:14:00.781Z,95745.84
2022-10-06T05:16:29.120Z,95749.97
2022-10-06T05:18:55.955Z,95742.63
2022-10-06T05:21:24.706Z,95758.09
2022-10-06T05:23:51.424Z,95755.69
2022-10-06T05:26:20.726Z,95766.59
2022-10-06T05:28:47.850Z,95760.44
2022-10-06T05:31:15.875Z,95771.03
2022-10-06T05:33:42.581Z,95764.38
2022-10-06T05:36:16.814Z,95768.53
2022-10-06T05:38:44.357Z,95777.53
2022-10-06T05:41:19.100Z,95778.63
2022-10-06T05:43:46.137Z,95776.13
2022-10-06T05:46:20.255Z,95790.00
2022-10-06T05:48:48.436Z,95783.25
2022-10-06T05:51:15.565Z,95785.97
2022-10-06T05:53:42.425Z,95787.25
2022-10-06T05:56:15.209Z,95788.94
2022-10-06T05:58:43.951Z,95799.13
2022-10-06T06:01:13.613Z,95792.47
2022-10-06T06:03:41.428Z,95793.69
2022-10-06T06:06:26.292Z,95804.03
2022-10-06T06:08:58.293Z,95798.34
2022-10-06T06:11:27.717Z,95803.47
2022-10-06T06:13:57.959Z,95816.56
2022-10-06T06:16:28.887Z,95816.00
2022-10-06T06:18:55.635Z,95789.09
2022-10-06T06:21:22.433Z,95820.97
2022-10-06T06:23:50.278Z,95822.28
2022-10-06T06:26:24.769Z,95825.72
2022-10-06T06:28:52.664Z,95828.50
2022-10-06T06:31:27.057Z,95836.59
2022-10-06T06:33:56.527Z,95820.63
2022-10-06T06:36:25.556Z,95838.97
2022-10-06T06:38:54.197Z,95841.94
2022-10-06T06:41:25.965Z,95843.13
2022-10-06T06:43:53.102Z,95848.34
2022-10-06T06:46:24.372Z,95853.00
2022-10-06T06:48:52.358Z,95852.78
2022-10-06T06:51:24.290Z,95858.94
2022-10-06T06:53:51.849Z,95861.31
2022-10-06T06:56:19.081Z,95862.03
2022-10-06T06:58:47.579Z,95862.50
2022-10-06T07:01:19.916Z,95865.69
2022-10-06T07:03:58.347Z,95855.38
2022-10-06T07:06:28.827Z,95838.00
2022-10-06T07:08:57.101Z,95864.38
2022-10-06T07:11:29.298Z,95862.84
2022-10-06T07:13:58.341Z,95868.69
2022-10-06T07:16:43.817Z,95858.44
2022-10-06T07:19:29.907Z,95869.22
2022-10-06T07:22:17.747Z,95860.75
2022-10-06T07:25:03.335Z,95860.47
2022-10-06T07:27:30.352Z,95849.09
2022-10-06T07:29:57.440Z,95842.19
2022-10-06T07:32:25.513Z,95867.78
2022-10-06T07:34:52.747Z,95861.44
2022-10-06T07:37:20.133Z,95878.16
2022-10-06T07:39:49.661Z,95852.31
2022-10-06T07:42:20.151Z,95877.63
2022-10-06T07:45:06.248Z,95864.25
2022-10-06T07:47:33.692Z,95867.94
2022-10-06T07:50:00.522Z,95870.47
2022-10-06T07:52:30.671Z,95866.69
2022-10-06T07:54:58.525Z,95884.22
2022-10-06T07:57:35.246Z,95891.44
2022-10-06T08:00:05.626Z,95890.78
2022-10-06T08:02:35.543Z,95876.91
2022-10-06T08:05:04.155Z,95885.75
2022-10-06T08:07:30.839Z,95884.34
2022-10-06T08:09:57.498Z,95868.91
2022-10-06T08:12:32.955Z,95872.38
2022-10-06T08:15:08.142Z,95868.75
2022-10-06T08:17:38.215Z,95884.31
2022-10-06T08:20:10.514Z,95873.16
2022-10-06T08:22:38.890Z,95866.19
2022-10-06T08:25:07.904Z,95868.66
2022-10-06T08:27:35.572Z,95886.34
2022-10-06T08:30:04.553Z,95889.06
2022-10-06T08:32:32.253Z,95893.03
2022-10-06T08:34:59.209Z,95881.00
2022-10-06T08:37:27.442Z,95887.22
2022-10-06T08:39:54.740Z,95883.94
2022-10-06T08:43:01.109Z,95895.44
2022-10-06T08:45:38.720Z,95882.22
2022-10-06T08:48:10.370Z,95887.91
2022-10-06T08:50:58.385Z,95891.53
2022-10-06T08:53:40.480Z,95898.53
2022-10-06T08:56:19.656Z,95902.38
2022-10-06T08:59:04.311Z,95897.09
2022-10-06T09:01:39.121Z,95902.72
2022-10-06T09:04:07.903Z,95878.22
2022-10-06T09:07:00.030Z,95894.94
2022-10-06T09:09:51.885Z,95890.44
2022-10-06T09:12:31.291Z,95884.63
2022-10-06T09:15:23.022Z,95890.41
2022-10-06T09:17:54.432Z,95875.47
2022-10-06T09:20:35.165Z,95900.78
2022-10-06T09:23:04.152Z,95900.41
2022-10-06T09:25:31.183Z,95908.31
2022-10-06T09:28:00.210Z,95904.97
2022-10-06T09:30:27.415Z,95891.81
2022-10-06T09:33:01.494Z,95899.41
2022-10-06T09:35:30.291Z,95908.66
2022-10-06T09:38:00.689Z,95909.22
2022-10-06T09:40:46.579Z,95909.06
2022-10-06T09:43:22.042Z,95906.81
2022-10-06T09:45:49.474Z,95899.56
2022-10-06T09:48:24.882Z,95868.13
2022-10-06T09:51:13.924Z,95908.81
2022-10-06T09:53:41.712Z,95888.94
2022-10-06T09:56:18.927Z,95882.16
2022-10-06T09:58:56.481Z,95892.00
2022-10-06T10:01:25.833Z,95896.28
2022-10-06T10:06:41.834Z,95892.50
2022-10-06T10:09:21.934Z,95895.34
2022-10-06T10:12:20.770Z,95900.38
2022-10-06T10:14:47.681Z,95880.63
2022-10-06T10:17:20.931Z,95885.53
2022-10-06T10:19:54.549Z,95888.09
2022-10-06T10:22:24.646Z,95884.69
2022-10-06T10:25:24.833Z,95896.72
2022-10-06T10:28:03.834Z,95902.19
2022-10-06T10:30:33.109Z,95906.63
2022-10-06T10:33:04.882Z,95911.38
2022-10-06T10:35:37.950Z,95905.59
2022-10-06T10:38:14.705Z,95904.50
2022-10-06T10:40:47.414Z,95901.09
2022-10-06T10:43:17.598Z,95908.44
2022-10-06T10:45:47.430Z,95913.97
2022-10-06T10:48:23.372Z,95910.84
2022-10-06T10:50:55.991Z,95897.09
2022-10-06T10:53:55.120Z,95904.25
2022-10-06T10:56:24.319Z,95901.59
2022-10-06T10:59:14.793Z,95914.97
2022-10-06T11:01:52.468Z,95892.06
2022-10-06T11:04:20.548Z,95910.91
2022-10-06T11:07:08.533Z,95905.88
2022-10-06T11:09:48.583Z,95903.25
2022-10-06T11:12:39.533Z,95912.44
2022-10-06T11:15:18.655Z,95909.97
2022-10-06T11:17:47.066Z,95908.97
2022-10-06T11:20:24.901Z,95917.44
2022-10-06T11:23:22.309Z,95909.09
2022-10-06T11:25:53.341Z,95923.03
2022-10-06T11:28:36.678Z,95905.50
2022-10-06T11:31:22.734Z,95915.44
2022-10-06T11:33:54.575Z,95907.81
2022-10-06T11:36:38.195Z,95903.75
2022-10-06T11:39:07.379Z,95904.13
2022-10-06T11:41:39.420Z,95899.22
2022-10-06T11:44:33.669Z,95892.78
2022-10-06T11:47:14.902Z,95890.75
2022-10-06T11:49:51.510Z,95892.81
2022-10-06T11:52:18.305Z,95893.09
2022-10-06T11:54:45.441Z,95884.38
2022-10-06T11:57:29.389Z,95887.00
2022-10-06T12:00:06.094Z,95886.69
2022-10-06T12:02:32.857Z,95884.34
2022-10-06T12:05:55.819Z,95883.19
2022-10-06T12:08:17.757Z,95868.78
2022-10-06T12:10:49.517Z,95855.91
2022-10-06T12:19:31.088Z,95862.38
2022-10-06T12:22:18.566Z,95867.19
2022-10-06T12:24:51.269Z,95858.41
2022-10-06T12:27:25.887Z,95859.44
2022-10-06T12:30:06.220Z,95832.50
2022-10-06T12:32:52.676Z,95854.56
2022-10-06T12:35:32.515Z,95846.72
2022-10-06T12:38:04.932Z,95837.94
2022-10-06T12:40:49.527Z,95861.41
2022-10-06T12:43:18.891Z,95844.44
2022-10-06T12:46:08.182Z,95849.63
2022-10-06T12:48:42.457Z,95838.97
2022-10-06T12:51:34.819Z,95836.16
2022-10-06T12:54:24.529Z,95823.03
2022-10-06T12:57:02.031Z,95827.16
2022-10-06T12:59:32.166Z,95832.09
2022-10-06T13:02:20.722Z,95818.13
2022-10-06T13:05:01.766Z,95815.22
2022-10-06T13:07:31.297Z,95818.09
2022-10-06T13:10:19.516Z,95825.50
2022-10-06T13:12:47.601Z,95797.69
2022-10-06T13:15:16.816Z,95819.53
2022-10-06T13:17:50.194Z,95816.31
2022-10-06T13:20:43.157Z,95819.59
2022-10-06T13:23:31.201Z,95817.53
2022-10-06T13:26:13.022Z,95819.00
2022-10-06T13:28:42.596Z,95820.13
2022-10-06T13:31:09.216Z,95814.84
2022-10-06T13:33:39.770Z,95803.44
2022-10-06T13:36:08.083Z,95809.88
2022-10-06T13:38:37.696Z,95816.50
2022-10-06T13:41:13.843Z,95813.19
2022-10-06T13:43:44.446Z,95803.34
2022-10-06T13:46:13.164Z,95809.25
2022-10-06T13:49:11.834Z,95815.81
2022-10-06T13:51:38.662Z,95807.56
2022-10-06T13:54:23.070Z,95808.63
2022-10-06T13:56:49.782Z,95812.16
2022-10-06T13:59:39.454Z,95801.28
2022-10-06T14:02:23.117Z,95806.72
2022-10-06T14:05:27.604Z,95806.59
2022-10-06T14:07:57.844Z,95768.13
2022-10-06T14:10:44.232Z,95796.81
2022-10-06T14:13:17.242Z,95792.00
2022-10-06T14:15:54.877Z,95788.88
2022-10-06T14:21:44.897Z,95799.16
2022-10-06T14:24:18.134Z,95804.63
2022-10-06T14:26:46.139Z,95807.88
2022-10-06T14:29:14.297Z,95796.06
2022-10-06T14:31:41.061Z,95805.88
2022-10-06T14:34:14.518Z,95798.41
2022-10-06T14:36:42.625Z,95801.19
2022-10-06T14:39:11.961Z,95782.09
2022-10-06T14:41:38.791Z,95799.91
2022-10-06T14:44:09.613Z,95785.97
2022-10-06T14:46:37.064Z,95797.47
2022-10-06T14:49:07.726Z,95800.00
2022-10-06T14:51:36.910Z,95790.09
2022-10-06T14:54:05.000Z,95802.06
2022-10-06T14:56:34.034Z,95791.34
2022-10-06T14:59:05.016Z,95782.31
2022-10-06T15:01:33.461Z,95791.34
2022-10-06T15:04:03.415Z,95799.59
2022-10-06T15:06:48.997Z,95789.06
2022-10-06T15:09:15.689Z,95781.63
2022-10-06T15:11:42.469Z,95771.03
2022-10-06T15:14:09.881Z,95784.72
2022-10-06T15:16:40.628Z,95803.81
2022-10-06T15:19:07.380Z,95791.63
2022-10-06T15:21:34.339Z,95785.34
2022-10-06T15:24:03.650Z,95793.59
2022-10-06T15:26:49.007Z,95788.91
2022-10-06T15:29:16.074Z,95788.03
2022-10-06T15:31:44.975Z,95791.31
2022-10-06T15:34:13.570Z,95761.66
2022-10-06T15:36:42.517Z,95789.44
2022-10-06T15:39:11.763Z,95779.28
2022-10-06T15:41:39.703Z,95779.72
2022-10-06T15:44:07.108Z,95790.63
2022-10-06T15:46:39.931Z,95790.41
2022-10-06T15:49:11.312Z,95786.22
2022-10-06T15:51:49.144Z,95775.44
2022-10-06T15:54:20.554Z,95782.06
2022-10-06T15:56:48.677Z,95751.50
2022-10-06T15:59:16.225Z,95787.94
2022-10-06T16:01:46.235Z,95785.28
2022-10-06T16:04:25.353Z,95773.47
2022-10-06T16:06:56.361Z,95792.97
2022-10-06T16:09:28.513Z,95790.63
2022-10-06T16:11:56.150Z,95766.16
2022-10-06T16:14:23.461Z,95781.59
2022-10-06T16:16:50.821Z,95763.59
2022-10-06T16:19:18.429Z,95788.75
2022-10-06T16:21:48.183Z,95771.28
2022-10-06T16:24:18.640Z,95778.19
2022-10-06T16:26:47.064Z,95797.47
2022-10-06T16:29:17.756Z,95782.75
2022-10-06T16:31:44.792Z,95796.06
2022-10-06T16:34:12.295Z,95789.47
2022-10-06T16:36:39.529Z,95789.31
2022-10-06T16:39:08.708Z,95797.72
2022-10-06T16:41:35.369Z,95766.09
2022-10-06T16:44:01.999Z,95797.56
2022-10-06T16:46:29.940Z,95794.81
2022-10-06T16:48:59.046Z,95795.84
2022-10-06T16:51:30.790Z,95803.16
2022-10-06T16:54:02.897Z,95797.66
2022-10-06T16:56:31.994Z,95794.66
2022-10-06T16:59:00.373Z,95792.34
2022-10-06T17:01:28.863Z,95798.03
2022-10-06T17:04:06.887Z,95799.06
2022-10-06T17:06:39.439Z,95798.69
2022-10-06T17:09:14.428Z,95793.63
2022-10-06T17:11:43.019Z,95805.56
2022-10-06T17:14:10.281Z,95790.88
2022-10-06T17:16:38.799Z,95802.91
2022-10-06T17:19:06.575Z,95804.44
2022-10-06T17:21:45.551Z,95794.63
2022-10-06T17:24:13.639Z,95806.00
2022-10-06T17:26:41.941Z,95809.22
2022-10-06T17:29:13.813Z,95785.25
2022-10-06T17:31:42.743Z,95816.16
2022-10-06T17:34:12.523Z,95804.56
2022-10-06T17:36:40.410Z,95823.28
2022-10-06T17:39:08.390Z,95818.28
2022-10-06T17:41:37.286Z,95827.38
2022-10-06T17:44:05.828Z,95817.84
2022-10-06T17:46:34.883Z,95831.41
2022-10-06T17:49:05.680Z,95820.13
2022-10-06T17:51:33.353Z,95829.13
2022-10-06T17:54:03.339Z,95820.72
2022-10-06T17:56:37.462Z,95821.22
2022-10-06T17:59:06.482Z,95826.72
2022-10-06T18:01:34.178Z,95830.25
2022-10-06T18:04:03.381Z,95814.75
2022-10-06T18:06:31.952Z,95823.72
2022-10-06T18:09:01.438Z,95826.44
2022-10-06T18:11:35.708Z,95819.19
2022-10-06T18:14:13.320Z,95825.34
2022-10-06T18:16:55.890Z,95824.72
2022-10-06T18:19:30.186Z,95818.31
2022-10-06T18:22:00.465Z,95831.09
2022-10-06T18:24:29.789Z,95808.94
2022-10-06T18:26:57.890Z,95824.84
2022-10-06T18:29:29.074Z,95820.53
2022-10-06T18:32:05.067Z,95819.75
2022-10-06T18:37:29.624Z,95825.53
2022-10-06T18:39:57.166Z,95834.81
2022-10-06T18:42:24.208Z,95836.00
2022-10-06T18:45:09.611Z,95815.63
2022-10-06T18:47:54.976Z,95825.72
2022-10-06T18:50:21.718Z,95807.66
2022-10-06T18:52:48.532Z,95804.97
2022-10-06T18:55:15.245Z,95831.47
2022-10-06T18:57:43.957Z,95834.28
2022-10-06T19:00:10.997Z,95825.53
2022-10-06T19:02:37.672Z,95835.75
2022-10-06T19:05:05.045Z,95831.78
2022-10-06T19:07:32.732Z,95841.88
2022-10-06T19:09:59.389Z,95844.34
2022-10-06T19:12:26.006Z,95827.59
2022-10-06T19:14:52.707Z,95835.88
2022-10-06T19:17:22.803Z,95839.34
2022-10-06T19:19:51.514Z,95839.16
2022-10-06T19:22:20.038Z,95816.59
2022-10-06T19:24:48.608Z,95830.69
2022-10-06T19:27:24.145Z,95844.91
2022-10-06T19:29:56.730Z,95843.22
2022-10-06T19:32:26.990Z,95845.66
2022-10-06T19:34:57.939Z,95847.13
2022-10-06T19:37:27.082Z,95818.97
2022-10-06T19:39:53.859Z,95837.81
2022-10-06T19:42:39.306Z,95832.44
2022-10-06T19:45:07.211Z,95851.00
2022-10-06T19:47:33.931Z,95831.31
2022-10-06T19:50:04.815Z,95844.06
2022-10-06T19:52:33.705Z,95836.28
2022-10-06T19:55:00.914Z,95836.06
2022-10-06T19:57:29.347Z,95845.28
2022-10-06T19:59:56.017Z,95818.41
2022-10-06T20:02:23.519Z,95842.59
2022-10-06T20:04:50.716Z,95833.78
2022-10-06T20:07:21.613Z,95832.59
2022-10-06T20:09:48.822Z,95843.47
2022-10-06T20:12:19.731Z,95829.50
2022-10-06T20:14:50.027Z,95796.00
2022-10-06T20:17:17.560Z,95842.06
2022-10-06T20:19:44.249Z,95844.34
2022-10-06T20:22:10.857Z,95836.97
2022-10-06T20:24:37.533Z,95824.81
2022-10-06T20:27:04.526Z,95816.31
2022-10-06T20:29:31.655Z,95821.66
2022-10-06T20:31:58.954Z,95817.00
2022-10-06T20:34:32.036Z,95816.47
2022-10-06T20:37:01.953Z,95836.53
2022-10-06T20:39:51.333Z,95829.91
2022-10-06T20:42:19.875Z,95838.50
2022-10-06T20:44:46.576Z,95788.72
2022-10-06T20:47:13.600Z,95825.53
2022-10-06T20:49:42.128Z,95792.72
2022-10-06T20:52:09.851Z,95823.56
2022-10-06T20:54:37.396Z,95793.25
2022-10-06T20:57:06.480Z,95827.03
2022-10-06T20:59:35.588Z,95824.56
2022-10-06T21:02:03.182Z,95823.78
2022-10-06T21:04:30.341Z,95831.41
2022-10-06T21:06:57.431Z,95822.53
2022-10-06T21:09:24.921Z,95814.59
2022-10-06T21:11:51.993Z,95823.09
2022-10-06T21:14:19.050Z,95819.09
2022-10-06T21:16:47.104Z,95817.00
2022-10-06T21:19:18.379Z,95825.06
2022-10-06T21:21:50.701Z,95823.41
2022-10-06T21:24:17.695Z,95824.03
2022-10-06T21:26:44.352Z,95818.75
2022-10-06T21:29:14.220Z,95809.22
2022-10-06T21:31:41.506Z,95812.53
2022-10-06T21:34:08.280Z,95776.06
2022-10-06T21:36:34.961Z,95788.31
2022-10-06T21:39:03.464Z,95800.88
2022-10-06T21:41:40.606Z,95797.66
2022-10-06T21:44:15.216Z,95793.41
2022-10-06T21:46:42.408Z,95796.22
2022-10-06T21:49:13.564Z,95788.22
2022-10-06T21:51:41.068Z,95789.03
2022-10-06T21:54:07.856Z,95772.75
2022-10-06T21:56:34.504Z,95781.28
2022-10-06T21:59:01.151Z,95773.81
2022-10-06T22:01:29.864Z,95775.09
2022-10-06T22:03:57.999Z,95779.91
2022-10-06T22:06:24.858Z,95773.28
2022-10-06T22:08:51.547Z,95741.09
2022-10-06T22:11:26.131Z,95775.59
2022-10-06T22:13:58.510Z,95768.69
2022-10-06T22:16:27.877Z,95767.00
2022-10-06T22:18:54.915Z,95770.66
2022-10-06T22:21:25.567Z,95765.91
2022-10-06T22:23:57.628Z,95737.84
2022-10-06T22:26:25.284Z,95764.47
2022-10-06T22:28:53.499Z,95764.75
2022-10-06T22:31:25.533Z,95758.88
2022-10-06T22:33:54.907Z,95758.50
2022-10-06T22:36:21.968Z,95751.56
2022-10-06T22:38:48.685Z,95746.44
2022-10-06T22:41:15.492Z,95744.38
2022-10-06T22:43:42.409Z,95757.09
2022-10-06T22:46:09.873Z,95750.72
2022-10-06T22:48:36.833Z,95748.22
2022-10-06T22:51:04.048Z,95726.56
2022-10-06T22:53:31.418Z,95705.03
2022-10-06T22:56:01.991Z,95733.19
2022-10-06T22:58:29.263Z,95729.59
2022-10-06T23:00:56.074Z,95734.53
2022-10-06T23:03:23.126Z,95728.97
2022-10-06T23:05:57.641Z,95674.06
2022-10-06T23:08:25.324Z,95719.41
2022-10-06T23:10:52.276Z,95696.91
2022-10-06T23:13:19.150Z,95722.25
2022-10-06T23:15:46.045Z,95727.03
2022-10-06T23:18:13.096Z,95700.75
2022-10-06T23:20:39.757Z,95703.91
2022-10-06T23:23:06.694Z,95710.53
2022-10-06T23:25:37.559Z,95706.69
2022-10-06T23:28:04.651Z,95718.75
2022-10-06T23:30:31.294Z,95704.47
2022-10-06T23:32:57.936Z,95710.09
2022-10-06T23:35:24.673Z,95718.06
2022-10-06T23:37:51.338Z,95673.06
2022-10-06T23:40:17.965Z,95700.56
2022-10-06T23:42:44.652Z,95706.34
2022-10-06T23:45:11.460Z,95691.69
2022-10-06T23:47:38.097Z,95707.41
2022-10-06T23:50:05.327Z,95705.78
2022-10-06T23:52:31.967Z,95701.59
2022-10-06T23:54:58.592Z,95656.31
2022-10-06T23:57:25.260Z,95691.03
2022-10-06T23:59:51.881Z,95682.47
